Time;durP1;ratioP1;P1;durP2;ratioP2;P2;SDS_P1;SDS_P2;PMS_P1;PMS_P2;Temp;Humidity;BMP_temperature;BMP_pressure;BME280_temperature;BME280_humidity;BME280_pressure;Samples;Min_cycle;Max_cycle;Signal;HPM_P1;HPM_P2
2023/01/11 00:00:44;;;;;;;2.58;1.25;;;;;;;9.34;100.00;100589.50;4719520;30;20053;-68
2023/01/11 00:03:11;;;;;;;2.10;1.63;;;;;;;9.26;100.00;100599.00;4709374;30;20053;-68
2023/01/11 00:05:40;;;;;;;2.50;1.20;;;;;;;9.25;100.00;100594.63;4726468;30;20104;-67
2023/01/11 00:08:08;;;;;;;2.88;1.40;;;;;;;9.26;100.00;100593.56;4701886;30;20057;-68
2023/01/11 00:10:36;;;;;;;3.17;1.45;;;;;;;9.24;100.00;100598.44;4687844;30;20093;-68
2023/01/11 00:13:04;;;;;;;3.83;1.63;;;;;;;9.21;100.00;100584.53;4702455;30;20077;-68
2023/01/11 00:15:35;;;;;;;2.78;1.30;;;;;;;9.26;100.00;100582.69;4702157;30;20057;-68
2023/01/11 00:18:02;;;;;;;2.78;1.30;;;;;;;9.31;100.00;100577.25;4705185;30;20559;-68
2023/01/11 00:20:31;;;;;;;2.10;1.10;;;;;;;9.30;100.00;100577.53;4721825;30;20056;-67
2023/01/11 00:22:59;;;;;;;3.40;1.70;;;;;;;9.26;100.00;100577.25;4733609;30;20123;-67
2023/01/11 00:25:26;;;;;;;1.77;1.50;;;;;;;9.30;100.00;100566.66;4737601;30;20053;-67
2023/01/11 00:27:54;;;;;;;2.97;1.50;;;;;;;9.31;100.00;100560.94;4737030;30;20117;-68
2023/01/11 00:30:22;;;;;;;3.20;1.50;;;;;;;9.44;100.00;100561.53;4726021;30;20053;-69
2023/01/11 00:32:54;;;;;;;1.65;1.13;;;;;;;9.52;100.00;100552.84;4722889;30;20056;-67
2023/01/11 00:35:21;;;;;;;3.97;1.92;;;;;;;9.48;100.00;100546.34;4729540;30;20087;-68
2023/01/11 00:37:49;;;;;;;2.40;1.40;;;;;;;9.52;100.00;100558.28;4731892;30;20056;-68
2023/01/11 00:40:17;;;;;;;2.53;1.33;;;;;;;9.46;100.00;100552.03;4722077;30;20084;-68
2023/01/11 00:48:17;;;;;;;1.95;1.05;;;;;;;9.55;100.00;100553.16;4708567;30;20353;-68
2023/01/11 00:50:44;;;;;;;5.60;1.60;;;;;;;9.62;100.00;100543.91;4720991;30;20053;-68
2023/01/11 00:53:13;;;;;;;3.60;1.65;;;;;;;9.56;100.00;100549.31;4721110;30;20061;-68
2023/01/11 00:55:41;;;;;;;2.70;1.40;;;;;;;9.51;100.00;100543.88;4721724;30;20494;-68
2023/01/11 00:58:09;;;;;;;4.85;1.35;;;;;;;9.53;100.00;100549.88;4723931;30;20057;-69
2023/01/11 01:00:36;;;;;;;1.33;1.23;;;;;;;9.56;100.00;100532.19;4724060;30;20060;-68
2023/01/11 01:03:04;;;;;;;1.75;1.23;;;;;;;9.54;100.00;100532.44;4720655;30;20084;-68
2023/01/11 01:05:32;;;;;;;2.13;1.30;;;;;;;9.53;100.00;100535.47;4720932;30;20049;-68
2023/01/11 01:08:00;;;;;;;2.22;1.23;;;;;;;9.64;100.00;100533.56;4724163;30;20060;-69
2023/01/11 01:10:27;;;;;;;3.45;1.20;;;;;;;9.58;100.00;100535.47;4707615;30;20510;-68
2023/01/11 01:15:42;;;;;;;2.05;1.35;;;;;;;9.49;100.00;100540.59;4716420;30;20406;-68
2023/01/11 01:18:10;;;;;;;2.63;1.27;;;;;;;9.57;100.00;100534.66;4718738;30;20135;-67
2023/01/11 01:20:37;;;;;;;1.70;1.02;;;;;;;9.57;100.00;100534.66;4719618;30;20412;-68
2023/01/11 01:23:06;;;;;;;2.22;1.25;;;;;;;9.60;100.00;100539.56;4703064;30;20061;-67
2023/01/11 01:25:36;;;;;;;2.22;1.10;;;;;;;9.54;100.00;100540.63;4704497;30;20056;-68
2023/01/11 01:28:04;;;;;;;2.13;1.30;;;;;;;9.48;100.00;100551.78;4718317;30;20053;-68
2023/01/11 01:30:32;;;;;;;2.20;1.20;;;;;;;9.42;100.00;100553.63;4703687;30;20492;-67
2023/01/11 01:33:00;;;;;;;3.20;1.17;;;;;;;9.43;100.00;100540.84;4716987;30;20046;-69
2023/01/11 01:35:30;;;;;;;1.75;0.98;;;;;;;9.53;100.00;100543.63;4688874;30;20061;-69
2023/01/11 01:37:58;;;;;;;3.33;1.33;;;;;;;9.52;100.00;100541.97;4704202;30;20053;-68
2023/01/11 01:40:27;;;;;;;2.70;1.20;;;;;;;9.48;100.00;100543.59;4703823;30;20103;-68
2023/01/11 01:42:55;;;;;;;2.47;1.17;;;;;;;9.48;100.00;100543.59;4718284;30;20060;-68
2023/01/11 01:45:26;;;;;;;3.15;1.38;;;;;;;9.46;100.00;100543.06;4719091;30;20132;-69
2023/01/11 01:48:00;;;;;;;1.38;1.00;;;;;;;9.43;100.00;100544.41;4719415;30;20083;-68
2023/01/11 01:50:41;;;;;;;1.50;1.10;;;;;;;9.48;100.00;100549.06;4703575;30;20053;-68
2023/01/11 01:53:30;;;;;;;1.73;1.35;;;;;;;9.54;100.00;100540.63;4717086;30;20522;-68
2023/01/11 01:56:02;;;;;;;1.35;0.90;;;;;;;9.53;100.00;100544.44;4703152;30;20148;-69
2023/01/11 01:58:37;;;;;;;1.98;1.20;;;;;;;9.57;100.00;100539.25;4703817;30;20061;-68
2023/01/11 02:04:31;;;;;;;2.25;1.20;;;;;;;9.53;100.00;100538.19;4674014;30;20131;-68
2023/01/11 02:07:02;;;;;;;1.95;1.13;;;;;;;9.54;100.00;100539.81;4700230;30;20490;-68
2023/01/11 02:09:44;;;;;;;2.58;1.38;;;;;;;9.59;100.00;100539.81;4703470;30;20085;-67
2023/01/11 02:12:13;;;;;;;2.03;1.30;;;;;;;9.61;100.00;100534.94;4718546;30;20071;-67
2023/01/11 02:14:43;;;;;;;1.70;1.27;;;;;;;9.59;100.00;100531.66;4717979;30;20063;-68
2023/01/11 02:17:11;;;;;;;1.65;1.08;;;;;;;9.58;100.00;100541.72;4717774;30;20080;-68
2023/01/11 02:19:52;;;;;;;2.22;0.95;;;;;;;9.63;100.00;100530.03;4717312;30;20053;-68
2023/01/11 02:22:43;;;;;;;1.15;1.00;;;;;;;9.63;100.00;100537.38;4717248;30;20109;-68
2023/01/11 02:25:25;;;;;;;3.42;1.42;;;;;;;9.69;100.00;100525.41;4702100;30;20491;-67
2023/01/11 02:28:07;;;;;;;1.10;1.00;;;;;;;9.65;100.00;100530.59;4686500;30;20063;-68
2023/01/11 02:30:44;;;;;;;2.97;1.20;;;;;;;9.69;100.00;100526.25;4712165;30;20132;-67
2023/01/11 02:33:13;;;;;;;;;;;;;;;9.66;100.00;100536.84;4718189;30;20057;-69
2023/01/11 02:35:55;;;;;;;2.60;0.85;;;;;;;9.72;100.00;100524.91;4712586;30;19962;-68
2023/01/11 02:38:37;;;;;;;1.27;0.90;;;;;;;9.78;100.00;100527.34;4700093;30;20051;-68
2023/01/11 02:45:01;;;;;;;2.40;1.33;;;;;;;9.81;100.00;100517.81;4648004;30;20065;-69
2023/01/11 02:47:44;;;;;;;1.55;1.10;;;;;;;9.80;100.00;100516.19;4715523;30;20077;-68
2023/01/11 02:50:22;;;;;;;1.50;0.90;;;;;;;9.87;100.00;100515.94;4717011;30;20132;-68
2023/01/11 02:53:01;;;;;;;1.88;1.10;;;;;;;9.84;100.00;100516.44;4702570;30;20509;-68
2023/01/11 02:55:33;;;;;;;2.42;1.25;;;;;;;9.81;100.00;100517.81;4718116;30;20053;-68
2023/01/11 02:58:02;;;;;;;1.80;1.30;;;;;;;9.77;100.00;100517.56;4701308;30;20053;-68
2023/01/11 03:00:30;;;;;;;2.08;0.90;;;;;;;9.77;100.00;100516.75;4702619;30;20060;-68
2023/01/11 03:03:33;;;;;;;1.20;0.93;;;;;;;9.76;100.00;100515.91;4715534;30;20053;-69
2023/01/11 03:06:05;;;;;;;1.08;0.70;;;;;;;9.75;100.00;100508.03;4700561;30;20061;-68
2023/01/11 03:08:51;;;;;;;1.50;1.02;;;;;;;9.73;100.00;100510.19;4716604;30;20057;-67
2023/01/11 03:15:15;;;;;;;1.83;1.05;;;;;;;9.77;100.00;100503.13;4697379;30;20079;-68
2023/01/11 03:18:07;;;;;;;1.55;1.00;;;;;;;9.78;100.00;100508.28;4702094;30;20147;-68
2023/01/11 03:20:44;;;;;;;2.13;1.25;;;;;;;9.77;100.00;100500.41;4716678;30;20418;-68
2023/01/11 03:23:23;;;;;;;1.27;1.00;;;;;;;9.76;100.00;100499.56;4716336;30;20053;-67
2023/01/11 03:26:20;;;;;;;2.80;1.27;;;;;;;9.78;100.00;100500.13;4716173;30;20053;-68
2023/01/11 03:29:13;;;;;;;1.00;0.95;;;;;;;9.76;100.00;100499.56;4702669;30;20514;-68
2023/01/11 03:32:11;;;;;;;1.02;0.85;;;;;;;9.76;100.00;100502.28;4717156;30;20064;-68
2023/01/11 03:34:52;;;;;;;1.90;0.80;;;;;;;9.76;100.00;100499.56;4686616;30;20049;-68
2023/01/11 03:37:30;;;;;;;1.25;0.75;;;;;;;9.79;100.00;100493.63;4687568;30;20514;-67
2023/01/11 03:40:04;;;;;;;1.67;0.80;;;;;;;9.78;100.00;100507.47;4702100;30;20084;-69
2023/01/11 03:42:33;;;;;;;1.27;0.98;;;;;;;9.80;100.00;100497.97;4688314;30;20066;-69
2023/01/11 03:45:02;;;;;;;1.50;1.00;;;;;;;9.84;100.00;100502.84;4715737;30;20411;-68
2023/01/11 03:47:31;;;;;;;1.20;0.98;;;;;;;9.84;100.00;100506.41;4719300;30;20075;-68
2023/01/11 03:50:04;;;;;;;2.08;1.02;;;;;;;9.85;100.00;100508.03;4691868;30;20063;-68
2023/01/11 03:52:34;;;;;;;0.98;0.85;;;;;;;9.86;100.00;100512.41;4691235;30;20053;-69
2023/01/11 03:55:05;;;;;;;1.70;0.98;;;;;;;9.85;100.00;100512.66;4720488;30;20083;-67
2023/01/11 03:57:36;;;;;;;1.60;0.95;;;;;;;9.86;100.00;100514.28;4704392;30;20570;-68
2023/01/11 04:00:05;;;;;;;1.70;1.05;;;;;;;9.86;100.00;100511.56;4724458;30;20087;-67
2023/01/11 04:02:35;;;;;;;1.00;0.90;;;;;;;9.90;100.00;100510.75;4736502;30;20059;-68
2023/01/11 04:05:04;;;;;;;0.60;0.60;;;;;;;9.90;100.00;100520.81;4719954;30;20049;-68
2023/01/11 04:07:31;;;;;;;0.73;0.73;;;;;;;9.91;100.00;100511.56;4732403;30;20053;-68
2023/01/11 04:09:59;;;;;;;1.25;0.73;;;;;;;9.91;100.00;100517.84;4722345;30;20057;-67
2023/01/11 04:12:27;;;;;;;2.05;0.80;;;;;;;9.90;100.00;100512.66;4702494;30;20065;-68
2023/01/11 04:14:54;;;;;;;0.93;0.75;;;;;;;9.90;100.00;100512.66;4720280;30;20049;-68
2023/01/11 04:17:22;;;;;;;0.68;0.68;;;;;;;9.89;100.00;100514.56;4720827;30;20446;-68
2023/01/11 04:19:50;;;;;;;1.58;0.70;;;;;;;9.91;100.00;100511.56;4705407;30;20056;-68
2023/01/11 04:22:17;;;;;;;1.30;0.70;;;;;;;9.93;100.00;100520.28;4720144;30;20084;-68
2023/01/11 04:24:45;;;;;;;0.65;0.65;;;;;;;9.91;100.00;100528.72;4718723;30;20120;-68
2023/01/11 04:27:13;;;;;;;1.15;0.60;;;;;;;9.91;100.00;100534.19;4720499;30;20048;-68
2023/01/11 04:29:40;;;;;;;1.05;0.80;;;;;;;9.92;100.00;100527.63;4719875;30;20502;-68
2023/01/11 04:32:08;;;;;;;1.02;0.60;;;;;;;9.93;100.00;100531.16;4719036;30;20499;-68
2023/01/11 04:34:36;;;;;;;0.82;0.80;;;;;;;9.93;100.00;100528.44;4703672;30;20049;-68
2023/01/11 04:37:03;;;;;;;0.90;0.55;;;;;;;9.94;100.00;100527.38;4718704;30;20553;-68
2023/01/11 04:39:31;;;;;;;0.60;0.60;;;;;;;9.94;100.00;100528.19;4720559;30;20084;-68
2023/01/11 04:42:17;;;;;;;0.85;0.70;;;;;;;9.94;100.00;100522.75;4719019;30;20067;-68
2023/01/11 04:44:49;;;;;;;0.75;0.70;;;;;;;9.96;100.00;100525.19;4719243;30;20173;-68
2023/01/11 04:47:18;;;;;;;1.58;1.02;;;;;;;9.97;100.00;100534.97;4720594;30;20059;-68
2023/01/11 04:49:46;;;;;;;0.68;0.50;;;;;;;9.98;100.00;100533.88;4704333;30;20422;-68
2023/01/11 04:52:15;;;;;;;2.58;0.82;;;;;;;10.03;100.00;100544.81;4718791;30;20049;-67
2023/01/11 04:54:44;;;;;;;0.77;0.70;;;;;;;10.06;100.00;100546.16;4725248;30;20056;-68
2023/01/11 04:57:14;;;;;;;0.85;0.85;;;;;;;10.08;100.00;100547.53;4718446;30;20065;-68
2023/01/11 04:59:41;;;;;;;0.85;0.68;;;;;;;10.07;100.00;100543.16;4701780;30;20061;-69
2023/01/11 05:02:09;;;;;;;3.05;0.88;;;;;;;10.09;100.00;100549.16;4701489;30;20059;-69
2023/01/11 05:04:37;;;;;;;2.55;0.90;;;;;;;10.07;100.00;100554.03;4702381;30;20403;-69
2023/01/11 05:07:06;;;;;;;0.90;0.82;;;;;;;10.08;100.00;100549.41;4715206;30;20530;-69
2023/01/11 05:09:34;;;;;;;2.22;1.30;;;;;;;10.08;100.00;100549.41;4718684;30;20060;-69
2023/01/11 05:12:02;;;;;;;2.78;1.10;;;;;;;10.09;100.00;100554.59;4719391;30;20506;-68
2023/01/11 05:14:30;;;;;;;2.53;1.13;;;;;;;10.11;100.00;100555.13;4720330;30;20057;-68
2023/01/11 05:16:58;;;;;;;3.45;1.80;;;;;;;10.14;100.00;100556.50;4712172;30;20080;-68
2023/01/11 05:19:25;;;;;;;2.65;1.30;;;;;;;10.13;100.00;100563.84;4714637;30;20057;-67
2023/01/11 05:21:53;;;;;;;1.42;1.20;;;;;;;10.14;100.00;100554.59;4715979;30;20061;-68
2023/01/11 05:24:20;;;;;;;1.55;1.35;;;;;;;10.16;100.00;100551.59;4688559;30;20057;-68
2023/01/11 05:26:49;;;;;;;2.25;1.35;;;;;;;10.19;100.00;100568.19;4718275;30;20055;-68
2023/01/11 05:29:19;;;;;;;1.80;1.40;;;;;;;10.20;100.00;100572.56;4719424;30;20068;-68
2023/01/11 05:31:47;;;;;;;1.17;0.82;;;;;;;10.20;100.00;100572.56;4719208;30;20079;-68
2023/01/11 05:34:16;;;;;;;1.23;1.13;;;;;;;10.19;100.00;100573.66;4716876;30;20053;-67
2023/01/11 05:36:44;;;;;;;3.30;1.70;;;;;;;10.19;100.00;100579.09;4718916;30;20057;-69
2023/01/11 05:39:12;;;;;;;1.85;1.50;;;;;;;10.19;100.00;100584.53;4717753;30;20057;-68
2023/01/11 05:41:40;;;;;;;2.58;1.60;;;;;;;10.20;100.00;100574.50;4703360;30;20059;-68
2023/01/11 05:46:57;;;;;;;3.58;1.70;;;;;;;10.21;100.00;100582.34;4700330;30;20930;-68
2023/01/11 05:49:25;;;;;;;3.30;1.90;;;;;;;10.21;100.00;100573.38;4673315;30;20136;-68
2023/01/11 05:51:53;;;;;;;3.88;1.98;;;;;;;10.22;100.00;100569.56;4717521;30;20389;-69
2023/01/11 05:54:20;;;;;;;3.83;2.17;;;;;;;10.21;100.00;100566.03;4718866;30;20084;-68
2023/01/11 05:56:48;;;;;;;4.85;2.20;;;;;;;10.20;100.00;100569.84;4702916;30;20214;-68
2023/01/11 05:59:16;;;;;;;5.45;2.17;;;;;;;10.18;100.00;100577.47;4700866;30;20053;-69
2023/01/11 06:01:44;;;;;;;5.72;2.38;;;;;;;10.16;100.00;100574.19;4700260;30;20484;-70
2023/01/11 06:04:11;;;;;;;4.85;2.67;;;;;;;10.17;100.00;100573.13;4706003;30;20053;-70
2023/01/11 06:06:41;;;;;;;6.57;2.80;;;;;;;10.19;100.00;100584.53;4702835;30;20057;-69
2023/01/11 06:09:09;;;;;;;9.35;3.30;;;;;;;10.21;100.00;100587.81;4063521;30;10000064;-68
2023/01/11 06:11:37;;;;;;;13.02;3.80;;;;;;;10.17;100.00;100596.78;4699455;30;20072;-69
2023/01/11 06:14:04;;;;;;;12.70;3.47;;;;;;;10.13;100.00;100591.09;4699560;30;20144;-69
2023/01/11 06:16:32;;;;;;;13.77;3.47;;;;;;;10.11;100.00;100609.59;4715273;30;20060;-69
2023/01/11 06:19:00;;;;;;;14.38;3.63;;;;;;;10.07;100.00;100613.13;4698387;30;20823;-69
2023/01/11 06:21:27;;;;;;;14.27;3.70;;;;;;;10.05;100.00;100604.41;4715633;30;20096;-73
2023/01/11 06:23:55;;;;;;;16.45;4.28;;;;;;;10.01;100.00;100604.13;4714901;30;20165;-73
2023/01/11 06:26:23;;;;;;;14.18;3.97;;;;;;;9.97;100.00;100605.75;4716153;30;20182;-72
2023/01/11 06:28:51;;;;;;;19.02;3.83;;;;;;;9.98;100.00;100605.50;4714408;30;20057;-72
2023/01/11 06:31:19;;;;;;;16.85;3.97;;;;;;;9.98;100.00;100627.25;4713862;30;20139;-73
2023/01/11 06:33:47;;;;;;;15.00;4.20;;;;;;;9.97;100.00;100630.25;4713554;30;20093;-72
2023/01/11 06:36:15;;;;;;;18.90;4.25;;;;;;;9.97;100.00;100641.13;4713901;30;20080;-72
2023/01/11 06:38:43;;;;;;;14.48;3.88;;;;;;;9.96;100.00;100634.06;4701919;30;20064;-72
2023/01/11 06:41:12;;;;;;;16.77;4.25;;;;;;;9.94;100.00;100638.94;4714392;30;20073;-72
2023/01/11 06:43:40;;;;;;;20.67;4.68;;;;;;;9.92;100.00;100638.41;4713454;30;20051;-72
2023/01/11 06:46:14;;;;;;;18.50;4.70;;;;;;;9.92;100.00;100654.72;4713583;30;20068;-72
2023/01/11 06:48:43;;;;;;;20.10;5.03;;;;;;;9.90;100.00;100674.03;4685429;30;20057;-72
2023/01/11 06:51:12;;;;;;;21.73;4.70;;;;;;;9.90;100.00;100678.66;4697579;30;20064;-72
2023/01/11 06:53:41;;;;;;;16.75;4.45;;;;;;;9.90;100.00;100673.22;4715395;30;20148;-72
2023/01/11 06:56:17;;;;;;;22.17;5.32;;;;;;;9.89;100.00;100671.59;4713296;30;20089;-72
2023/01/11 06:58:45;;;;;;;20.80;4.95;;;;;;;9.86;100.00;100667.50;4713913;30;20056;-72
2023/01/11 07:01:15;;;;;;;18.90;5.20;;;;;;;9.87;100.00;100679.22;4714123;30;20045;-73
2023/01/11 07:03:44;;;;;;;19.80;4.55;;;;;;;9.87;100.00;100706.41;4699930;30;20580;-73
2023/01/11 07:06:12;;;;;;;22.85;5.22;;;;;;;9.86;100.00;100711.06;4700878;30;20095;-74
2023/01/11 07:08:41;;;;;;;18.40;4.50;;;;;;;9.83;100.00;100700.69;4715771;30;20064;-71
2023/01/11 07:11:10;;;;;;;16.70;4.57;;;;;;;9.81;100.00;100697.41;4714729;30;20053;-72
2023/01/11 07:13:39;;;;;;;21.98;5.50;;;;;;;9.79;100.00;100686.81;4717395;30;20135;-75
2023/01/11 07:16:08;;;;;;;22.75;5.10;;;;;;;9.78;100.00;100693.31;4702985;30;20462;-73
2023/01/11 07:18:37;;;;;;;19.25;5.00;;;;;;;9.77;100.00;100691.69;4725968;30;20061;-71
2023/01/11 07:21:05;;;;;;;23.70;4.97;;;;;;;9.76;100.00;100694.66;4732320;30;20068;-72
2023/01/11 07:23:33;;;;;;;24.02;4.93;;;;;;;9.79;100.00;100707.75;4727586;30;20049;-72
2023/01/11 07:26:01;;;;;;;21.15;5.38;;;;;;;9.77;100.00;100702.56;4713182;30;20053;-72
2023/01/11 07:28:29;;;;;;;23.38;5.28;;;;;;;9.77;100.00;100718.09;4730466;30;20060;-73
2023/01/11 07:31:02;;;;;;;21.23;4.88;;;;;;;9.78;100.00;100717.78;4690703;30;20068;-72
2023/01/11 07:33:30;;;;;;;23.48;5.68;;;;;;;9.77;100.00;100724.34;4692400;30;20088;-70
2023/01/11 07:35:59;;;;;;;18.50;4.45;;;;;;;9.75;100.00;100740.09;4719149;30;20087;-71
2023/01/11 07:38:28;;;;;;;22.92;4.82;;;;;;;9.76;100.00;100733.56;4733515;30;20045;-65
2023/01/11 07:40:55;;;;;;;19.55;4.72;;;;;;;9.73;100.00;100742.25;4732641;30;20053;-66
2023/01/11 07:43:23;;;;;;;23.10;5.60;;;;;;;9.73;100.00;100738.72;4730872;30;20056;-66
2023/01/11 07:45:52;;;;;;;21.38;4.75;;;;;;;9.71;100.00;100746.34;4728698;30;20053;-66
2023/01/11 07:48:25;;;;;;;20.65;5.20;;;;;;;9.69;100.00;100743.06;4724090;30;20061;-66
2023/01/11 07:50:54;;;;;;;21.58;5.20;;;;;;;9.69;100.00;100757.50;4722299;30;20569;-66
2023/01/11 07:53:25;;;;;;;17.90;4.28;;;;;;;9.70;100.00;100761.03;4723724;30;20060;-65
2023/01/11 07:55:55;;;;;;;19.42;4.95;;;;;;;9.71;100.00;100763.47;4723356;30;20098;-68
2023/01/11 07:58:23;;;;;;;21.35;5.22;;;;;;;9.71;100.00;100768.91;4723086;30;20140;-67
2023/01/11 08:00:51;;;;;;;19.45;4.22;;;;;;;9.70;100.00;100764.56;4711200;30;20061;-66
2023/01/11 08:03:18;;;;;;;20.15;5.13;;;;;;;9.72;100.00;100781.44;4707414;30;20103;-67
2023/01/11 08:05:51;;;;;;;19.23;5.65;;;;;;;9.72;100.00;100776.00;4720670;30;20598;-66
2023/01/11 08:08:19;;;;;;;21.08;5.03;;;;;;;9.69;100.00;100795.59;4691738;30;20076;-66
2023/01/11 08:14:37;;;;;;;21.90;4.75;;;;;;;9.67;100.00;100795.03;4692154;30;20465;-67
2023/01/11 08:16:21;;;;;;;18.00;4.63;;;;;;;9.67;100.00;100800.47;4722552;30;20111;-66
2023/01/11 08:18:51;;;;;;;17.58;4.43;;;;;;;9.66;100.00;100815.13;4706145;30;20095;-66
2023/01/11 08:21:20;;;;;;;15.52;4.60;;;;;;;9.65;100.00;100818.94;4721380;30;20049;-67
2023/01/11 08:23:47;;;;;;;19.65;4.57;;;;;;;9.64;100.00;100822.72;4705791;30;20426;-66
2023/01/11 08:26:16;;;;;;;18.30;4.45;;;;;;;9.63;100.00;100837.44;4713206;30;20079;-66
2023/01/11 08:28:45;;;;;;;17.17;4.22;;;;;;;9.64;100.00;100841.78;4705074;30;20071;-66
2023/01/11 08:31:12;;;;;;;15.02;4.18;;;;;;;9.63;100.00;100853.75;4708851;30;20061;-66
2023/01/11 08:33:40;;;;;;;14.77;4.30;;;;;;;9.63;100.00;100853.75;4687019;30;20059;-66
2023/01/11 08:36:10;;;;;;;19.35;4.72;;;;;;;9.63;100.00;100859.19;4701773;30;20506;-67
2023/01/11 08:38:38;;;;;;;19.33;4.90;;;;;;;9.63;100.00;100870.06;4703999;30;20057;-65
2023/01/11 08:41:09;;;;;;;16.40;4.30;;;;;;;9.63;100.00;100870.06;4704930;30;20058;-66
2023/01/11 08:43:41;;;;;;;18.10;4.63;;;;;;;9.63;100.00;100869.25;4717614;30;20077;-66
2023/01/11 08:46:09;;;;;;;17.80;4.35;;;;;;;9.61;100.00;100877.66;4705724;30;20051;-66
2023/01/11 08:48:37;;;;;;;28.90;5.35;;;;;;;9.60;100.00;100876.03;4722604;30;20092;-66
2023/01/11 08:51:05;;;;;;;17.10;4.95;;;;;;;9.60;100.00;100881.47;4718965;30;20049;-67
2023/01/11 08:53:33;;;;;;;20.08;4.78;;;;;;;9.58;100.00;100878.19;4720476;30;20060;-67
2023/01/11 08:56:00;;;;;;;18.90;5.07;;;;;;;9.55;100.00;100874.09;4718811;30;20090;-67
2023/01/11 08:58:29;;;;;;;18.67;5.35;;;;;;;9.55;100.00;100878.72;4705105;30;20090;-66
2023/01/11 09:00:58;;;;;;;23.17;5.25;;;;;;;9.56;100.00;100885.78;4718676;30;20132;-67
2023/01/11 09:03:27;;;;;;;22.40;4.65;;;;;;;9.55;100.00;100884.16;4718877;30;20049;-67
2023/01/11 09:05:57;;;;;;;17.90;4.40;;;;;;;9.54;100.00;100879.78;4717675;30;20066;-67
2023/01/11 09:08:26;;;;;;;19.02;5.30;;;;;;;9.52;100.00;100890.09;4704036;30;20418;-66
2023/01/11 09:10:55;;;;;;;16.42;5.10;;;;;;;9.49;100.00;100887.91;4720136;30;20057;-66
2023/01/11 09:13:23;;;;;;;18.90;5.15;;;;;;;9.50;100.00;100897.69;4715399;30;20220;-67
2023/01/11 09:15:57;;;;;;;25.88;5.57;;;;;;;9.51;100.00;100896.63;4675085;30;20052;-67
2023/01/11 09:18:25;;;;;;;20.55;5.85;;;;;;;9.50;100.00;100898.53;4718125;30;20139;-66
2023/01/11 09:20:54;;;;;;;16.92;4.88;;;;;;;9.48;100.00;100894.44;4718282;30;20045;-65
2023/01/11 09:23:22;;;;;;;16.90;4.50;;;;;;;9.47;100.00;100898.22;4704092;30;20051;-66
2023/01/11 09:25:51;;;;;;;17.63;4.72;;;;;;;9.47;100.00;100909.09;4718987;30;20065;-67
2023/01/11 09:28:20;;;;;;;14.07;4.20;;;;;;;9.46;100.00;100913.72;4718911;30;20044;-65
2023/01/11 09:30:47;;;;;;;16.85;4.45;;;;;;;9.46;100.00;100915.63;4716679;30;20084;-67
2023/01/11 09:33:15;;;;;;;20.02;5.57;;;;;;;9.45;100.00;100919.41;4718316;30;20084;-66
2023/01/11 09:35:45;;;;;;;19.05;4.88;;;;;;;9.44;100.00;100925.94;4717619;30;20053;-67
2023/01/11 09:38:12;;;;;;;18.25;4.45;;;;;;;9.43;100.00;100924.28;4718099;30;20053;-67
2023/01/11 09:41:04;;;;;;;17.50;4.60;;;;;;;9.42;100.00;100925.38;4718158;30;20060;-67
2023/01/11 09:43:37;;;;;;;19.58;4.78;;;;;;;9.38;100.00;100925.91;4718030;30;20461;-67
2023/01/11 09:46:07;;;;;;;19.60;5.18;;;;;;;9.39;100.00;100930.25;4717552;30;20057;-67
2023/01/11 09:48:47;;;;;;;18.08;4.85;;;;;;;9.36;100.00;100938.94;4705914;30;20564;-67
2023/01/11 09:51:17;;;;;;;19.40;5.15;;;;;;;9.34;100.00;100935.66;4717818;30;20132;-68
2023/01/11 09:53:51;;;;;;;16.30;4.85;;;;;;;9.38;100.00;100939.50;4717753;30;20491;-67
2023/01/11 09:56:24;;;;;;;16.80;4.20;;;;;;;9.36;100.00;100933.50;4703378;30;20384;-67
2023/01/11 09:59:04;;;;;;;21.65;4.97;;;;;;;9.37;100.00;100937.84;4703062;30;20466;-66
2023/01/11 10:01:46;;;;;;;16.20;4.78;;;;;;;9.37;100.00;100946.00;4712343;30;20049;-67
2023/01/11 10:04:40;;;;;;;18.77;4.68;;;;;;;9.36;100.00;100949.00;4702808;30;20418;-67
2023/01/11 10:07:32;;;;;;;21.17;5.40;;;;;;;9.39;100.00;100954.72;4717739;30;20056;-68
2023/01/11 10:10:20;;;;;;;16.00;3.92;;;;;;;9.42;100.00;100952.56;4699243;30;20065;-67
2023/01/11 10:13:26;;;;;;;18.38;4.60;;;;;;;9.33;100.00;100958.47;4717328;30;20065;-68
2023/01/11 10:16:34;;;;;;;23.67;5.13;;;;;;;9.34;100.00;100942.97;4718173;30;20060;-67
2023/01/11 10:19:31;;;;;;;20.15;4.95;;;;;;;9.34;100.00;100946.53;4718641;30;20064;-67
2023/01/11 10:22:18;;;;;;;24.40;4.90;;;;;;;9.33;100.00;100954.91;4717342;30;20107;-67
2023/01/11 10:25:10;;;;;;;18.30;4.60;;;;;;;9.35;100.00;100955.50;4718431;30;20053;-67
2023/01/11 10:28:00;;;;;;;17.00;4.75;;;;;;;9.47;100.00;100947.19;4717371;30;20135;-67
2023/01/11 10:30:52;;;;;;;18.88;4.68;;;;;;;9.47;100.00;100952.63;4718391;30;20061;-68
2023/01/11 10:33:44;;;;;;;18.52;4.78;;;;;;;9.48;100.00;100957.00;4703139;30;20057;-68
2023/01/11 10:42:32;;;;;;;18.70;4.78;;;;;;;9.58;100.00;100943.47;4716864;30;20056;-68
2023/01/11 10:45:02;;;;;;;21.17;4.72;;;;;;;9.57;100.00;100963.59;4717211;30;20049;-67
2023/01/11 10:47:40;;;;;;;15.38;4.28;;;;;;;9.58;100.00;100955.19;4717690;30;20057;-67
2023/01/11 10:50:20;;;;;;;21.13;5.32;;;;;;;9.62;100.00;100965.53;4703063;30;20091;-68
2023/01/11 10:53:11;;;;;;;21.05;5.50;;;;;;;9.66;100.00;100962.03;4718370;30;20495;-67
2023/01/11 10:55:51;;;;;;;23.35;5.47;;;;;;;9.62;100.00;100960.09;4716526;30;20132;-67
2023/01/11 10:58:38;;;;;;;19.85;5.65;;;;;;;9.65;100.00;100965.84;4717130;30;20060;-67
2023/01/11 11:01:39;;;;;;;19.40;4.35;;;;;;;9.66;100.00;100966.66;4703267;30;20131;-67
2023/01/11 11:04:36;;;;;;;21.08;5.60;;;;;;;9.68;100.00;100970.78;4702693;30;20388;-68
2023/01/11 11:07:10;;;;;;;18.27;4.75;;;;;;;9.70;100.00;100962.38;4717222;30;20050;-69
2023/01/11 11:10:10;;;;;;;17.58;4.78;;;;;;;9.69;100.00;100967.00;4705665;30;20067;-67
2023/01/11 11:12:45;;;;;;;16.25;5.10;;;;;;;9.76;100.00;100967.56;4715798;30;20073;-67
2023/01/11 11:15:26;;;;;;;17.08;4.57;;;;;;;9.76;100.00;100970.28;4710216;30;20061;-67
2023/01/11 11:17:54;;;;;;;20.88;4.72;;;;;;;9.75;100.00;100962.41;4719525;30;20049;-68
2023/01/11 11:20:29;;;;;;;17.55;4.85;;;;;;;9.76;100.00;100964.03;4733006;30;20057;-67
2023/01/11 11:22:57;;;;;;;20.95;4.90;;;;;;;9.75;100.00;100962.41;4730477;30;20061;-67
2023/01/11 11:25:30;;;;;;;17.10;4.70;;;;;;;9.71;100.00;100967.53;4717932;30;20102;-66
2023/01/11 11:28:29;;;;;;;15.55;4.45;;;;;;;9.79;100.00;100963.53;4717005;30;20091;-67
2023/01/11 11:31:00;;;;;;;20.92;5.32;;;;;;;9.80;100.00;100976.88;4717349;30;20053;-67
2023/01/11 11:33:39;;;;;;;23.90;5.70;;;;;;;9.76;100.00;100973.00;4717066;30;20057;-67
2023/01/11 11:36:08;;;;;;;14.15;5.13;;;;;;;9.82;100.00;100988.31;4716127;30;20060;-67
2023/01/11 11:38:37;;;;;;;16.42;4.53;;;;;;;9.84;100.00;100973.63;4716428;30;20136;-68
2023/01/11 11:41:09;;;;;;;23.52;5.45;;;;;;;9.82;100.00;100977.44;4716701;30;20053;-67
2023/01/11 11:43:44;;;;;;;15.18;5.10;;;;;;;9.90;100.00;100972.59;4701935;30;20396;-67
2023/01/11 11:46:18;;;;;;;19.90;5.47;;;;;;;9.84;100.00;100984.50;4717828;30;20080;-67
2023/01/11 11:49:08;;;;;;;17.88;4.95;;;;;;;9.84;100.00;100989.94;4702069;30;20061;-68
2023/01/11 11:51:36;;;;;;;21.90;5.32;;;;;;;9.86;100.00;100993.22;4717581;30;20124;-67
2023/01/11 11:54:03;;;;;;;16.75;4.72;;;;;;;9.81;100.00;100989.41;4716112;30;20057;-68
2023/01/11 11:56:36;;;;;;;21.50;5.30;;;;;;;9.81;100.00;100986.69;4717687;30;20148;-68
2023/01/11 11:59:12;;;;;;;16.45;4.82;;;;;;;9.86;100.00;100985.91;4718026;30;20140;-67
2023/01/11 12:01:45;;;;;;;21.23;5.40;;;;;;;9.89;100.00;100987.28;4717625;30;20060;-67
2023/01/11 12:04:22;;;;;;;21.90;5.05;;;;;;;9.85;100.00;100986.16;4716866;30;20054;-68
2023/01/11 12:07:10;;;;;;;;;;;;;;;9.89;100.00;100990.84;4716847;30;20055;-67
2023/01/11 12:09:41;;;;;;;20.08;5.25;;;;;;;9.88;100.00;100989.16;4719709;30;19927;-68
2023/01/11 12:12:17;;;;;;;19.38;4.70;;;;;;;9.98;100.00;100977.53;4706526;30;20085;-67
2023/01/11 12:15:14;;;;;;;20.45;4.80;;;;;;;10.02;100.00;100975.94;4723072;30;20057;-67